sensor_id;sensor_type;location;lat;lon;timestamp;P1;durP1;ratioP1;P2;durP2;ratioP2
12437;SDS011;6283;51.330;12.374;2023-05-10T00:01:05;3.23;;;2.93;;
12437;SDS011;6283;51.330;12.374;2023-05-10T00:03:30;6.13;;;2.97;;
12437;SDS011;6283;51.330;12.374;2023-05-10T00:05:56;3.83;;;2.87;;
12437;SDS011;6283;51.330;12.374;2023-05-10T00:08:22;9.57;;;3.97;;
12437;SDS011;6283;51.330;12.374;2023-05-10T00:10:48;5.47;;;3.30;;
12437;SDS011;6283;51.330;12.374;2023-05-10T00:13:14;3.23;;;2.97;;
12437;SDS011;6283;51.330;12.374;2023-05-10T00:15:39;3.93;;;3.10;;
12437;SDS011;6283;51.330;12.374;2023-05-10T00:18:05;4.23;;;2.90;;
12437;SDS011;6283;51.330;12.374;2023-05-10T00:20:30;4.30;;;3.40;;
12437;SDS011;6283;51.330;12.374;2023-05-10T00:22:56;3.60;;;3.30;;
12437;SDS011;6283;51.330;12.374;2023-05-10T00:25:25;4.93;;;3.77;;
12437;SDS011;6283;51.330;12.374;2023-05-10T00:27:50;3.60;;;3.13;;
12437;SDS011;6283;51.330;12.374;2023-05-10T00:30:16;4.10;;;3.53;;
12437;SDS011;6283;51.330;12.374;2023-05-10T00:32:42;4.10;;;3.57;;
12437;SDS011;6283;51.330;12.374;2023-05-10T00:35:08;5.03;;;3.57;;
12437;SDS011;6283;51.330;12.374;2023-05-10T00:37:34;3.10;;;2.83;;
12437;SDS011;6283;51.330;12.374;2023-05-10T00:40:00;4.23;;;3.20;;
12437;SDS011;6283;51.330;12.374;2023-05-10T00:42:25;5.50;;;2.97;;
12437;SDS011;6283;51.330;12.374;2023-05-10T00:44:51;3.40;;;3.10;;
12437;SDS011;6283;51.330;12.374;2023-05-10T00:47:17;3.30;;;3.00;;
12437;SDS011;6283;51.330;12.374;2023-05-10T00:49:43;4.03;;;3.43;;
12437;SDS011;6283;51.330;12.374;2023-05-10T00:52:09;3.20;;;2.90;;
12437;SDS011;6283;51.330;12.374;2023-05-10T00:54:35;3.40;;;3.10;;
12437;SDS011;6283;51.330;12.374;2023-05-10T00:57:01;3.17;;;2.83;;
12437;SDS011;6283;51.330;12.374;2023-05-10T00:59:27;4.23;;;2.93;;
12437;SDS011;6283;51.330;12.374;2023-05-10T01:01:53;3.37;;;3.07;;
12437;SDS011;6283;51.330;12.374;2023-05-10T01:04:19;3.73;;;2.93;;
12437;SDS011;6283;51.330;12.374;2023-05-10T01:06:50;4.07;;;3.37;;
12437;SDS011;6283;51.330;12.374;2023-05-10T01:09:17;4.00;;;3.60;;
12437;SDS011;6283;51.330;12.374;2023-05-10T01:11:43;4.00;;;3.20;;
12437;SDS011;6283;51.330;12.374;2023-05-10T01:14:10;3.20;;;2.90;;
12437;SDS011;6283;51.330;12.374;2023-05-10T01:16:37;3.90;;;3.20;;
12437;SDS011;6283;51.330;12.374;2023-05-10T01:19:11;3.13;;;2.93;;
12437;SDS011;6283;51.330;12.374;2023-05-10T01:27:17;2.83;;;2.63;;
12437;SDS011;6283;51.330;12.374;2023-05-10T01:32:55;4.80;;;3.20;;
12437;SDS011;6283;51.330;12.374;2023-05-10T01:35:29;5.40;;;3.27;;
12437;SDS011;6283;51.330;12.374;2023-05-10T01:40:48;3.33;;;3.03;;
12437;SDS011;6283;51.330;12.374;2023-05-10T01:43:29;4.50;;;3.27;;
12437;SDS011;6283;51.330;12.374;2023-05-10T01:46:09;3.80;;;3.07;;
12437;SDS011;6283;51.330;12.374;2023-05-10T01:48:49;3.60;;;3.30;;
12437;SDS011;6283;51.330;12.374;2023-05-10T01:51:22;3.40;;;3.10;;
12437;SDS011;6283;51.330;12.374;2023-05-10T01:53:51;3.73;;;2.93;;
12437;SDS011;6283;51.330;12.374;2023-05-10T01:56:24;4.10;;;2.80;;
12437;SDS011;6283;51.330;12.374;2023-05-10T01:58:52;3.60;;;2.93;;
12437;SDS011;6283;51.330;12.374;2023-05-10T02:01:20;3.60;;;3.30;;
12437;SDS011;6283;51.330;12.374;2023-05-10T02:03:46;3.40;;;3.10;;
12437;SDS011;6283;51.330;12.374;2023-05-10T02:06:14;4.23;;;3.37;;
12437;SDS011;6283;51.330;12.374;2023-05-10T02:08:45;5.77;;;3.10;;
12437;SDS011;6283;51.330;12.374;2023-05-10T02:11:13;4.03;;;3.40;;
12437;SDS011;6283;51.330;12.374;2023-05-10T02:13:39;4.63;;;3.37;;
12437;SDS011;6283;51.330;12.374;2023-05-10T02:16:06;3.70;;;3.30;;
12437;SDS011;6283;51.330;12.374;2023-05-10T02:18:33;3.87;;;3.33;;
12437;SDS011;6283;51.330;12.374;2023-05-10T02:21:00;4.47;;;3.30;;
12437;SDS011;6283;51.330;12.374;2023-05-10T02:23:28;3.97;;;2.90;;
12437;SDS011;6283;51.330;12.374;2023-05-10T02:25:57;3.67;;;3.37;;
12437;SDS011;6283;51.330;12.374;2023-05-10T02:28:24;4.30;;;3.50;;
12437;SDS011;6283;51.330;12.374;2023-05-10T02:30:52;4.27;;;2.90;;
12437;SDS011;6283;51.330;12.374;2023-05-10T02:33:19;3.90;;;3.57;;
12437;SDS011;6283;51.330;12.374;2023-05-10T02:35:48;4.53;;;3.57;;
12437;SDS011;6283;51.330;12.374;2023-05-10T02:38:15;14.70;;;4.70;;
12437;SDS011;6283;51.330;12.374;2023-05-10T02:40:43;5.10;;;3.13;;
12437;SDS011;6283;51.330;12.374;2023-05-10T02:43:12;5.17;;;3.40;;
12437;SDS011;6283;51.330;12.374;2023-05-10T02:45:39;4.30;;;3.67;;
12437;SDS011;6283;51.330;12.374;2023-05-10T02:48:06;3.40;;;3.10;;
12437;SDS011;6283;51.330;12.374;2023-05-10T02:50:32;3.73;;;3.30;;
12437;SDS011;6283;51.330;12.374;2023-05-10T02:53:04;4.10;;;3.27;;
12437;SDS011;6283;51.330;12.374;2023-05-10T02:55:36;3.97;;;3.20;;
12437;SDS011;6283;51.330;12.374;2023-05-10T02:58:05;3.83;;;3.10;;
12437;SDS011;6283;51.330;12.374;2023-05-10T03:00:32;5.40;;;3.33;;
12437;SDS011;6283;51.330;12.374;2023-05-10T03:02:58;5.43;;;3.33;;
12437;SDS011;6283;51.330;12.374;2023-05-10T03:05:23;3.57;;;3.27;;
12437;SDS011;6283;51.330;12.374;2023-05-10T03:07:50;4.47;;;3.30;;
12437;SDS011;6283;51.330;12.374;2023-05-10T03:10:17;5.40;;;3.33;;
12437;SDS011;6283;51.330;12.374;2023-05-10T03:15:51;3.77;;;3.47;;
12437;SDS011;6283;51.330;12.374;2023-05-10T03:18:33;5.77;;;3.43;;
12437;SDS011;6283;51.330;12.374;2023-05-10T03:21:10;3.87;;;3.10;;
12437;SDS011;6283;51.330;12.374;2023-05-10T03:26:23;5.53;;;3.17;;
12437;SDS011;6283;51.330;12.374;2023-05-10T03:28:51;3.90;;;3.37;;
12437;SDS011;6283;51.330;12.374;2023-05-10T03:31:18;3.60;;;3.30;;
12437;SDS011;6283;51.330;12.374;2023-05-10T03:33:50;5.23;;;3.60;;
12437;SDS011;6283;51.330;12.374;2023-05-10T03:36:17;3.83;;;3.30;;
12437;SDS011;6283;51.330;12.374;2023-05-10T03:38:43;5.93;;;3.33;;
12437;SDS011;6283;51.330;12.374;2023-05-10T03:41:09;3.73;;;3.30;;
12437;SDS011;6283;51.330;12.374;2023-05-10T03:43:35;4.90;;;3.20;;
12437;SDS011;6283;51.330;12.374;2023-05-10T03:46:02;3.83;;;3.50;;
12437;SDS011;6283;51.330;12.374;2023-05-10T03:48:28;5.00;;;3.50;;
12437;SDS011;6283;51.330;12.374;2023-05-10T03:50:54;3.83;;;3.27;;
12437;SDS011;6283;51.330;12.374;2023-05-10T03:53:19;3.87;;;3.43;;
12437;SDS011;6283;51.330;12.374;2023-05-10T03:55:45;4.57;;;3.33;;
12437;SDS011;6283;51.330;12.374;2023-05-10T03:58:11;4.67;;;3.20;;
12437;SDS011;6283;51.330;12.374;2023-05-10T04:00:37;4.27;;;3.87;;
12437;SDS011;6283;51.330;12.374;2023-05-10T04:03:08;4.40;;;3.50;;
12437;SDS011;6283;51.330;12.374;2023-05-10T04:05:34;4.40;;;3.70;;
12437;SDS011;6283;51.330;12.374;2023-05-10T04:08:00;7.57;;;3.20;;
12437;SDS011;6283;51.330;12.374;2023-05-10T04:10:26;4.00;;;3.43;;
12437;SDS011;6283;51.330;12.374;2023-05-10T04:12:51;4.80;;;3.17;;
12437;SDS011;6283;51.330;12.374;2023-05-10T04:15:17;6.07;;;3.20;;
12437;SDS011;6283;51.330;12.374;2023-05-10T04:17:43;6.00;;;3.53;;
12437;SDS011;6283;51.330;12.374;2023-05-10T04:20:08;6.60;;;3.47;;
12437;SDS011;6283;51.330;12.374;2023-05-10T04:22:34;4.37;;;3.20;;
12437;SDS011;6283;51.330;12.374;2023-05-10T04:25:00;3.63;;;3.33;;
12437;SDS011;6283;51.330;12.374;2023-05-10T04:27:26;4.27;;;3.40;;
12437;SDS011;6283;51.330;12.374;2023-05-10T04:29:52;5.70;;;3.50;;
12437;SDS011;6283;51.330;12.374;2023-05-10T04:32:17;7.87;;;3.70;;
12437;SDS011;6283;51.330;12.374;2023-05-10T04:34:44;3.60;;;3.27;;
12437;SDS011;6283;51.330;12.374;2023-05-10T04:37:09;5.20;;;3.63;;
12437;SDS011;6283;51.330;12.374;2023-05-10T04:39:35;4.43;;;3.10;;
12437;SDS011;6283;51.330;12.374;2023-05-10T04:42:01;5.13;;;3.67;;
12437;SDS011;6283;51.330;12.374;2023-05-10T04:44:28;8.50;;;4.00;;
12437;SDS011;6283;51.330;12.374;2023-05-10T04:46:54;4.83;;;3.17;;
12437;SDS011;6283;51.330;12.374;2023-05-10T04:49:20;5.00;;;3.20;;
12437;SDS011;6283;51.330;12.374;2023-05-10T04:51:45;5.93;;;3.47;;
12437;SDS011;6283;51.330;12.374;2023-05-10T04:54:11;5.60;;;3.50;;
12437;SDS011;6283;51.330;12.374;2023-05-10T04:56:37;5.50;;;3.80;;
12437;SDS011;6283;51.330;12.374;2023-05-10T04:59:03;5.63;;;4.00;;
12437;SDS011;6283;51.330;12.374;2023-05-10T05:01:29;4.17;;;3.17;;
12437;SDS011;6283;51.330;12.374;2023-05-10T05:03:54;5.00;;;3.57;;
12437;SDS011;6283;51.330;12.374;2023-05-10T05:06:20;4.13;;;3.10;;
12437;SDS011;6283;51.330;12.374;2023-05-10T05:08:46;3.30;;;3.00;;
12437;SDS011;6283;51.330;12.374;2023-05-10T05:11:11;3.40;;;3.10;;
12437;SDS011;6283;51.330;12.374;2023-05-10T05:13:37;7.63;;;3.47;;
12437;SDS011;6283;51.330;12.374;2023-05-10T05:16:03;4.67;;;3.03;;
12437;SDS011;6283;51.330;12.374;2023-05-10T05:18:30;6.13;;;3.10;;
12437;SDS011;6283;51.330;12.374;2023-05-10T05:20:55;3.57;;;2.93;;
12437;SDS011;6283;51.330;12.374;2023-05-10T05:23:21;5.47;;;3.10;;
12437;SDS011;6283;51.330;12.374;2023-05-10T05:25:49;11.13;;;4.70;;
12437;SDS011;6283;51.330;12.374;2023-05-10T05:28:21;3.87;;;3.27;;
12437;SDS011;6283;51.330;12.374;2023-05-10T05:30:47;4.83;;;3.40;;
12437;SDS011;6283;51.330;12.374;2023-05-10T05:33:13;4.03;;;3.10;;
12437;SDS011;6283;51.330;12.374;2023-05-10T05:35:40;5.43;;;3.10;;
12437;SDS011;6283;51.330;12.374;2023-05-10T05:38:07;5.20;;;3.00;;
12437;SDS011;6283;51.330;12.374;2023-05-10T05:40:33;3.47;;;2.70;;
12437;SDS011;6283;51.330;12.374;2023-05-10T05:42:59;6.77;;;3.70;;
12437;SDS011;6283;51.330;12.374;2023-05-10T05:45:25;5.17;;;3.17;;
12437;SDS011;6283;51.330;12.374;2023-05-10T05:47:50;15.20;;;5.17;;
12437;SDS011;6283;51.330;12.374;2023-05-10T05:50:16;3.30;;;3.00;;
12437;SDS011;6283;51.330;12.374;2023-05-10T05:52:42;4.32;;;3.40;;
12437;SDS011;6283;51.330;12.374;2023-05-10T05:55:07;3.40;;;3.10;;
12437;SDS011;6283;51.330;12.374;2023-05-10T05:57:33;5.23;;;3.10;;
12437;SDS011;6283;51.330;12.374;2023-05-10T05:59:59;3.70;;;3.40;;
12437;SDS011;6283;51.330;12.374;2023-05-10T06:02:28;4.13;;;3.10;;
12437;SDS011;6283;51.330;12.374;2023-05-10T06:04:53;5.63;;;2.90;;
12437;SDS011;6283;51.330;12.374;2023-05-10T06:07:19;6.75;;;3.70;;
12437;SDS011;6283;51.330;12.374;2023-05-10T06:09:45;6.03;;;3.43;;
12437;SDS011;6283;51.330;12.374;2023-05-10T06:12:10;4.47;;;3.60;;
12437;SDS011;6283;51.330;12.374;2023-05-10T06:14:36;4.20;;;3.40;;
12437;SDS011;6283;51.330;12.374;2023-05-10T06:17:02;7.70;;;3.53;;
12437;SDS011;6283;51.330;12.374;2023-05-10T06:19:29;4.70;;;3.43;;
12437;SDS011;6283;51.330;12.374;2023-05-10T06:21:55;4.88;;;2.94;;
12437;SDS011;6283;51.330;12.374;2023-05-10T06:24:21;3.85;;;3.33;;
12437;SDS011;6283;51.330;12.374;2023-05-10T06:26:47;6.47;;;3.40;;
12437;SDS011;6283;51.330;12.374;2023-05-10T06:29:14;4.63;;;3.75;;
12437;SDS011;6283;51.330;12.374;2023-05-10T06:31:40;6.43;;;3.60;;
12437;SDS011;6283;51.330;12.374;2023-05-10T06:34:06;4.72;;;3.45;;
12437;SDS011;6283;51.330;12.374;2023-05-10T06:36:33;3.60;;;3.30;;
12437;SDS011;6283;51.330;12.374;2023-05-10T06:38:58;3.88;;;3.53;;
12437;SDS011;6283;51.330;12.374;2023-05-10T06:41:24;6.25;;;3.35;;
12437;SDS011;6283;51.330;12.374;2023-05-10T06:43:49;3.67;;;3.30;;
12437;SDS011;6283;51.330;12.374;2023-05-10T06:46:15;4.40;;;3.42;;
12437;SDS011;6283;51.330;12.374;2023-05-10T06:48:41;5.57;;;3.38;;
12437;SDS011;6283;51.330;12.374;2023-05-10T06:51:06;5.78;;;3.30;;
12437;SDS011;6283;51.330;12.374;2023-05-10T06:53:32;3.92;;;3.53;;
12437;SDS011;6283;51.330;12.374;2023-05-10T06:55:58;5.55;;;3.10;;
12437;SDS011;6283;51.330;12.374;2023-05-10T06:58:23;3.35;;;3.05;;
12437;SDS011;6283;51.330;12.374;2023-05-10T07:00:49;4.80;;;3.20;;
12437;SDS011;6283;51.330;12.374;2023-05-10T07:03:15;3.33;;;3.03;;
12437;SDS011;6283;51.330;12.374;2023-05-10T07:05:41;4.22;;;3.28;;
12437;SDS011;6283;51.330;12.374;2023-05-10T07:08:07;6.57;;;3.33;;
12437;SDS011;6283;51.330;12.374;2023-05-10T07:10:33;6.75;;;3.10;;
12437;SDS011;6283;51.330;12.374;2023-05-10T07:12:59;4.93;;;3.20;;
12437;SDS011;6283;51.330;12.374;2023-05-10T07:15:26;5.05;;;3.63;;
12437;SDS011;6283;51.330;12.374;2023-05-10T07:17:52;3.45;;;2.90;;
12437;SDS011;6283;51.330;12.374;2023-05-10T07:20:18;4.38;;;3.63;;
12437;SDS011;6283;51.330;12.374;2023-05-10T07:22:43;3.90;;;3.30;;
12437;SDS011;6283;51.330;12.374;2023-05-10T07:25:09;4.43;;;3.22;;
12437;SDS011;6283;51.330;12.374;2023-05-10T07:27:35;3.85;;;3.15;;
12437;SDS011;6283;51.330;12.374;2023-05-10T07:30:01;3.38;;;2.78;;
12437;SDS011;6283;51.330;12.374;2023-05-10T07:32:27;4.93;;;3.28;;
12437;SDS011;6283;51.330;12.374;2023-05-10T07:34:53;3.65;;;3.10;;
12437;SDS011;6283;51.330;12.374;2023-05-10T07:37:19;5.75;;;3.53;;
12437;SDS011;6283;51.330;12.374;2023-05-10T07:39:44;3.50;;;3.20;;
12437;SDS011;6283;51.330;12.374;2023-05-10T07:42:10;3.28;;;2.97;;
12437;SDS011;6283;51.330;12.374;2023-05-10T07:44:35;3.92;;;3.20;;
12437;SDS011;6283;51.330;12.374;2023-05-10T07:47:01;5.78;;;3.22;;
12437;SDS011;6283;51.330;12.374;2023-05-10T07:49:27;3.80;;;3.50;;
12437;SDS011;6283;51.330;12.374;2023-05-10T07:51:52;3.80;;;3.50;;
12437;SDS011;6283;51.330;12.374;2023-05-10T07:54:18;3.80;;;3.20;;
12437;SDS011;6283;51.330;12.374;2023-05-10T07:56:44;4.22;;;3.60;;
12437;SDS011;6283;51.330;12.374;2023-05-10T07:59:14;3.60;;;3.30;;
12437;SDS011;6283;51.330;12.374;2023-05-10T08:01:43;7.55;;;3.97;;
12437;SDS011;6283;51.330;12.374;2023-05-10T08:04:09;3.97;;;3.67;;
12437;SDS011;6283;51.330;12.374;2023-05-10T08:06:36;4.50;;;3.80;;
12437;SDS011;6283;51.330;12.374;2023-05-10T08:09:02;5.95;;;3.35;;
12437;SDS011;6283;51.330;12.374;2023-05-10T08:11:27;3.35;;;3.05;;
12437;SDS011;6283;51.330;12.374;2023-05-10T08:13:53;5.65;;;3.10;;
12437;SDS011;6283;51.330;12.374;2023-05-10T08:16:19;7.05;;;3.75;;
12437;SDS011;6283;51.330;12.374;2023-05-10T08:18:45;4.78;;;3.92;;
12437;SDS011;6283;51.330;12.374;2023-05-10T08:21:12;4.65;;;3.83;;
12437;SDS011;6283;51.330;12.374;2023-05-10T08:23:38;4.47;;;3.50;;
12437;SDS011;6283;51.330;12.374;2023-05-10T08:26:04;3.35;;;3.05;;
12437;SDS011;6283;51.330;12.374;2023-05-10T08:28:30;5.47;;;3.38;;
12437;SDS011;6283;51.330;12.374;2023-05-10T08:30:56;7.03;;;3.40;;
12437;SDS011;6283;51.330;12.374;2023-05-10T08:33:21;5.45;;;3.42;;
12437;SDS011;6283;51.330;12.374;2023-05-10T08:35:47;3.78;;;3.30;;
12437;SDS011;6283;51.330;12.374;2023-05-10T08:38:13;3.80;;;3.50;;
12437;SDS011;6283;51.330;12.374;2023-05-10T08:40:40;6.00;;;3.47;;
12437;SDS011;6283;51.330;12.374;2023-05-10T08:43:09;5.18;;;3.22;;
12437;SDS011;6283;51.330;12.374;2023-05-10T08:45:40;5.00;;;3.35;;
12437;SDS011;6283;51.330;12.374;2023-05-10T08:48:07;6.57;;;3.58;;
12437;SDS011;6283;51.330;12.374;2023-05-10T08:50:38;4.38;;;3.90;;
12437;SDS011;6283;51.330;12.374;2023-05-10T08:53:06;4.57;;;3.88;;
12437;SDS011;6283;51.330;12.374;2023-05-10T08:55:35;6.38;;;3.80;;
12437;SDS011;6283;51.330;12.374;2023-05-10T08:58:03;3.80;;;3.35;;
12437;SDS011;6283;51.330;12.374;2023-05-10T09:00:30;5.22;;;4.20;;
12437;SDS011;6283;51.330;12.374;2023-05-10T09:02:57;7.47;;;3.95;;
12437;SDS011;6283;51.330;12.374;2023-05-10T09:05:23;5.78;;;4.53;;
12437;SDS011;6283;51.330;12.374;2023-05-10T09:07:49;4.63;;;3.92;;
12437;SDS011;6283;51.330;12.374;2023-05-10T09:10:15;4.65;;;3.97;;
12437;SDS011;6283;51.330;12.374;2023-05-10T09:12:41;5.45;;;4.38;;
12437;SDS011;6283;51.330;12.374;2023-05-10T09:15:09;4.53;;;4.13;;
12437;SDS011;6283;51.330;12.374;2023-05-10T09:17:35;6.68;;;4.25;;
12437;SDS011;6283;51.330;12.374;2023-05-10T09:20:03;6.63;;;4.47;;
12437;SDS011;6283;51.330;12.374;2023-05-10T09:22:32;5.47;;;4.43;;
12437;SDS011;6283;51.330;12.374;2023-05-10T09:25:12;6.00;;;4.68;;
12437;SDS011;6283;51.330;12.374;2023-05-10T09:27:39;5.47;;;4.63;;
12437;SDS011;6283;51.330;12.374;2023-05-10T09:30:10;7.38;;;4.93;;
12437;SDS011;6283;51.330;12.374;2023-05-10T09:32:41;6.32;;;4.90;;
12437;SDS011;6283;51.330;12.374;2023-05-10T09:35:14;6.00;;;4.78;;
12437;SDS011;6283;51.330;12.374;2023-05-10T09:37:47;5.50;;;5.00;;
12437;SDS011;6283;51.330;12.374;2023-05-10T09:40:14;6.70;;;4.82;;
12437;SDS011;6283;51.330;12.374;2023-05-10T09:42:55;7.27;;;5.23;;
12437;SDS011;6283;51.330;12.374;2023-05-10T09:45:35;5.75;;;5.13;;
12437;SDS011;6283;51.330;12.374;2023-05-10T09:48:01;5.97;;;5.15;;
12437;SDS011;6283;51.330;12.374;2023-05-10T09:50:28;6.23;;;5.33;;
12437;SDS011;6283;51.330;12.374;2023-05-10T09:52:56;5.47;;;4.95;;
12437;SDS011;6283;51.330;12.374;2023-05-10T09:55:24;6.00;;;5.37;;
12437;SDS011;6283;51.330;12.374;2023-05-10T09:58:00;5.40;;;4.90;;
12437;SDS011;6283;51.330;12.374;2023-05-10T10:00:27;5.95;;;5.35;;
12437;SDS011;6283;51.330;12.374;2023-05-10T10:02:57;6.90;;;5.47;;
12437;SDS011;6283;51.330;12.374;2023-05-10T10:05:32;6.05;;;5.38;;
12437;SDS011;6283;51.330;12.374;2023-05-10T10:08:00;6.05;;;5.32;;
12437;SDS011;6283;51.330;12.374;2023-05-10T10:10:28;7.90;;;5.35;;
12437;SDS011;6283;51.330;12.374;2023-05-10T10:12:54;7.38;;;5.32;;
12437;SDS011;6283;51.330;12.374;2023-05-10T10:15:20;6.28;;;5.63;;
12437;SDS011;6283;51.330;12.374;2023-05-10T10:17:47;6.33;;;5.57;;
12437;SDS011;6283;51.330;12.374;2023-05-10T10:20:14;7.13;;;6.43;;
12437;SDS011;6283;51.330;12.374;2023-05-10T10:22:40;6.90;;;6.05;;
12437;SDS011;6283;51.330;12.374;2023-05-10T10:25:06;10.02;;;6.47;;
12437;SDS011;6283;51.330;12.374;2023-05-10T10:27:42;8.13;;;5.75;;
12437;SDS011;6283;51.330;12.374;2023-05-10T10:33:05;9.95;;;6.50;;
12437;SDS011;6283;51.330;12.374;2023-05-10T10:35:52;7.20;;;5.72;;
12437;SDS011;6283;51.330;12.374;2023-05-10T10:38:18;6.97;;;5.95;;
12437;SDS011;6283;51.330;12.374;2023-05-10T10:40:45;6.45;;;5.50;;
12437;SDS011;6283;51.330;12.374;2023-05-10T10:43:27;6.20;;;5.60;;
12437;SDS011;6283;51.330;12.374;2023-05-10T10:48:39;5.55;;;5.00;;
12437;SDS011;6283;51.330;12.374;2023-05-10T10:51:05;6.20;;;5.53;;
12437;SDS011;6283;51.330;12.374;2023-05-10T10:53:31;6.40;;;5.63;;
12437;SDS011;6283;51.330;12.374;2023-05-10T10:58:34;6.35;;;5.70;;
12437;SDS011;6283;51.330;12.374;2023-05-10T11:01:10;7.10;;;5.80;;
12437;SDS011;6283;51.330;12.374;2023-05-10T11:03:36;6.45;;;5.85;;
12437;SDS011;6283;51.330;12.374;2023-05-10T11:06:02;8.93;;;6.60;;
12437;SDS011;6283;51.330;12.374;2023-05-10T11:08:28;7.75;;;6.43;;
12437;SDS011;6283;51.330;12.374;2023-05-10T11:13:31;6.97;;;6.30;;
12437;SDS011;6283;51.330;12.374;2023-05-10T11:16:11;7.13;;;6.35;;
12437;SDS011;6283;51.330;12.374;2023-05-10T11:18:39;7.80;;;6.30;;
12437;SDS011;6283;51.330;12.374;2023-05-10T11:21:05;8.55;;;6.40;;
12437;SDS011;6283;51.330;12.374;2023-05-10T11:26:06;7.78;;;6.13;;
12437;SDS011;6283;51.330;12.374;2023-05-10T11:28:34;7.35;;;6.10;;
12437;SDS011;6283;51.330;12.374;2023-05-10T11:31:06;6.90;;;6.20;;
12437;SDS011;6283;51.330;12.374;2023-05-10T11:33:36;10.98;;;6.25;;
12437;SDS011;6283;51.330;12.374;2023-05-10T11:36:18;9.80;;;6.35;;
12437;SDS011;6283;51.330;12.374;2023-05-10T11:38:54;10.20;;;7.18;;
12437;SDS011;6283;51.330;12.374;2023-05-10T11:41:21;6.55;;;5.80;;
12437;SDS011;6283;51.330;12.374;2023-05-10T11:43:52;7.88;;;6.10;;
12437;SDS011;6283;51.330;12.374;2023-05-10T11:46:22;7.55;;;6.80;;
12437;SDS011;6283;51.330;12.374;2023-05-10T11:48:50;7.80;;;6.75;;
12437;SDS011;6283;51.330;12.374;2023-05-10T11:51:24;7.18;;;6.47;;
12437;SDS011;6283;51.330;12.374;2023-05-10T11:53:54;8.30;;;6.47;;
12437;SDS011;6283;51.330;12.374;2023-05-10T11:56:20;9.45;;;6.82;;
12437;SDS011;6283;51.330;12.374;2023-05-10T11:58:52;7.97;;;7.10;;
12437;SDS011;6283;51.330;12.374;2023-05-10T12:01:20;7.45;;;6.70;;
12437;SDS011;6283;51.330;12.374;2023-05-10T12:03:47;8.10;;;6.35;;
12437;SDS011;6283;51.330;12.374;2023-05-10T12:06:14;7.88;;;6.70;;
12437;SDS011;6283;51.330;12.374;2023-05-10T12:08:44;7.05;;;6.45;;
12437;SDS011;6283;51.330;12.374;2023-05-10T12:11:12;8.23;;;6.82;;
12437;SDS011;6283;51.330;12.374;2023-05-10T12:13:42;7.35;;;6.60;;
12437;SDS011;6283;51.330;12.374;2023-05-10T12:16:18;6.82;;;6.18;;
12437;SDS011;6283;51.330;12.374;2023-05-10T12:18:51;6.97;;;6.28;;
12437;SDS011;6283;51.330;12.374;2023-05-10T12:21:19;6.95;;;6.20;;
12437;SDS011;6283;51.330;12.374;2023-05-10T12:23:46;6.95;;;6.35;;
12437;SDS011;6283;51.330;12.374;2023-05-10T12:26:13;7.25;;;6.55;;
12437;SDS011;6283;51.330;12.374;2023-05-10T12:28:39;6.47;;;5.88;;
12437;SDS011;6283;51.330;12.374;2023-05-10T12:31:05;7.70;;;6.20;;
12437;SDS011;6283;51.330;12.374;2023-05-10T12:33:50;7.03;;;6.32;;
12437;SDS011;6283;51.330;12.374;2023-05-10T12:36:16;6.97;;;6.28;;
12437;SDS011;6283;51.330;12.374;2023-05-10T12:38:48;7.22;;;6.53;;
12437;SDS011;6283;51.330;12.374;2023-05-10T12:41:14;7.45;;;6.43;;
12437;SDS011;6283;51.330;12.374;2023-05-10T12:43:41;8.32;;;6.85;;
12437;SDS011;6283;51.330;12.374;2023-05-10T12:46:08;7.35;;;6.65;;
12437;SDS011;6283;51.330;12.374;2023-05-10T12:48:38;7.30;;;6.60;;
12437;SDS011;6283;51.330;12.374;2023-05-10T12:51:05;7.15;;;6.03;;
12437;SDS011;6283;51.330;12.374;2023-05-10T12:53:36;6.07;;;5.47;;
12437;SDS011;6283;51.330;12.374;2023-05-10T12:56:02;7.38;;;5.93;;
12437;SDS011;6283;51.330;12.374;2023-05-10T12:58:28;6.95;;;6.07;;
12437;SDS011;6283;51.330;12.374;2023-05-10T13:00:54;6.57;;;5.97;;
12437;SDS011;6283;51.330;12.374;2023-05-10T13:03:21;6.22;;;5.13;;
12437;SDS011;6283;51.330;12.374;2023-05-10T13:05:47;5.70;;;5.20;;
12437;SDS011;6283;51.330;12.374;2023-05-10T13:08:12;6.22;;;5.10;;
12437;SDS011;6283;51.330;12.374;2023-05-10T13:10:38;5.97;;;5.38;;
12437;SDS011;6283;51.330;12.374;2023-05-10T13:13:04;5.85;;;5.10;;
12437;SDS011;6283;51.330;12.374;2023-05-10T13:15:30;4.95;;;4.45;;
12437;SDS011;6283;51.330;12.374;2023-05-10T13:17:56;5.63;;;4.95;;
12437;SDS011;6283;51.330;12.374;2023-05-10T13:20:21;4.97;;;4.47;;
12437;SDS011;6283;51.330;12.374;2023-05-10T13:22:47;5.03;;;4.53;;
12437;SDS011;6283;51.330;12.374;2023-05-10T13:25:12;5.68;;;5.22;;
12437;SDS011;6283;51.330;12.374;2023-05-10T13:27:39;4.95;;;4.55;;
12437;SDS011;6283;51.330;12.374;2023-05-10T13:30:05;4.60;;;4.20;;
12437;SDS011;6283;51.330;12.374;2023-05-10T13:32:32;4.63;;;4.18;;
12437;SDS011;6283;51.330;12.374;2023-05-10T13:34:58;4.75;;;4.20;;
12437;SDS011;6283;51.330;12.374;2023-05-10T13:37:24;5.18;;;4.10;;
12437;SDS011;6283;51.330;12.374;2023-05-10T13:39:49;4.72;;;4.20;;
12437;SDS011;6283;51.330;12.374;2023-05-10T13:42:15;4.50;;;4.13;;
12437;SDS011;6283;51.330;12.374;2023-05-10T13:44:41;4.50;;;4.10;;
12437;SDS011;6283;51.330;12.374;2023-05-10T13:47:06;5.20;;;4.30;;
12437;SDS011;6283;51.330;12.374;2023-05-10T13:49:32;5.18;;;4.60;;
12437;SDS011;6283;51.330;12.374;2023-05-10T13:51:59;4.65;;;4.25;;
12437;SDS011;6283;51.330;12.374;2023-05-10T13:54:30;4.47;;;4.07;;
12437;SDS011;6283;51.330;12.374;2023-05-10T13:56:56;4.75;;;4.30;;
12437;SDS011;6283;51.330;12.374;2023-05-10T13:59:22;4.35;;;3.95;;
12437;SDS011;6283;51.330;12.374;2023-05-10T14:01:48;4.65;;;4.25;;
12437;SDS011;6283;51.330;12.374;2023-05-10T14:04:13;5.70;;;4.30;;
12437;SDS011;6283;51.330;12.374;2023-05-10T14:06:39;5.03;;;4.10;;
12437;SDS011;6283;51.330;12.374;2023-05-10T14:09:05;4.10;;;3.70;;
12437;SDS011;6283;51.330;12.374;2023-05-10T14:11:30;4.03;;;3.72;;
12437;SDS011;6283;51.330;12.374;2023-05-10T14:13:56;5.10;;;4.70;;
12437;SDS011;6283;51.330;12.374;2023-05-10T14:16:22;5.80;;;4.75;;
12437;SDS011;6283;51.330;12.374;2023-05-10T14:18:47;5.43;;;4.93;;
12437;SDS011;6283;51.330;12.374;2023-05-10T14:21:13;5.65;;;5.15;;
12437;SDS011;6283;51.330;12.374;2023-05-10T14:23:39;5.65;;;5.15;;
12437;SDS011;6283;51.330;12.374;2023-05-10T14:26:04;5.95;;;5.35;;
12437;SDS011;6283;51.330;12.374;2023-05-10T14:28:33;6.55;;;5.53;;
12437;SDS011;6283;51.330;12.374;2023-05-10T14:30:59;4.95;;;4.53;;
12437;SDS011;6283;51.330;12.374;2023-05-10T14:33:28;6.35;;;5.57;;
12437;SDS011;6283;51.330;12.374;2023-05-10T14:35:53;6.03;;;5.43;;
12437;SDS011;6283;51.330;12.374;2023-05-10T14:38:21;6.45;;;5.15;;
12437;SDS011;6283;51.330;12.374;2023-05-10T14:40:47;4.38;;;3.97;;
12437;SDS011;6283;51.330;12.374;2023-05-10T14:43:12;4.68;;;4.28;;
12437;SDS011;6283;51.330;12.374;2023-05-10T14:45:38;5.68;;;3.75;;
12437;SDS011;6283;51.330;12.374;2023-05-10T14:48:03;4.10;;;3.70;;
12437;SDS011;6283;51.330;12.374;2023-05-10T14:50:29;4.50;;;4.10;;
12437;SDS011;6283;51.330;12.374;2023-05-10T14:52:56;4.43;;;4.03;;
12437;SDS011;6283;51.330;12.374;2023-05-10T14:55:22;5.60;;;4.88;;
12437;SDS011;6283;51.330;12.374;2023-05-10T14:57:48;4.45;;;3.95;;
12437;SDS011;6283;51.330;12.374;2023-05-10T15:00:15;4.00;;;3.70;;
12437;SDS011;6283;51.330;12.374;2023-05-10T15:02:41;3.08;;;2.78;;
12437;SDS011;6283;51.330;12.374;2023-05-10T15:05:07;2.58;;;2.38;;
12437;SDS011;6283;51.330;12.374;2023-05-10T15:07:32;2.15;;;1.40;;
12437;SDS011;6283;51.330;12.374;2023-05-10T15:09:58;4.28;;;1.80;;
12437;SDS011;6283;51.330;12.374;2023-05-10T15:12:24;2.17;;;1.98;;
12437;SDS011;6283;51.330;12.374;2023-05-10T15:14:49;3.15;;;2.20;;
12437;SDS011;6283;51.330;12.374;2023-05-10T15:17:15;1.38;;;1.30;;
12437;SDS011;6283;51.330;12.374;2023-05-10T15:19:41;1.75;;;1.60;;